Time;durP1;ratioP1;P1;durP2;ratioP2;P2;SDS_P1;SDS_P2;PMS_P1;PMS_P2;Temp;Humidity;BMP_temperature;BMP_pressure;BME280_temperature;BME280_humidity;BME280_pressure;Samples;Min_cycle;Max_cycle;Signal;HPM_P1;HPM_P2
2022/04/15 00:00:56;;;;;;;;;;;13.90;99.90;;;;;;2621570;46;20667;31
2022/04/15 00:03:31;;;;;;;;;;;13.80;99.90;;;;;;2603151;54;20001;31
2022/04/15 00:06:08;;;;;;;;;;;13.80;99.90;;;;;;2603269;54;19939;31
2022/04/15 00:08:42;;;;;;;;;;;13.70;99.90;;;;;;2603236;54;20005;31
2022/04/15 00:11:21;;;;;;;;;;;13.70;99.90;;;;;;2603290;54;19951;31
2022/04/15 00:14:00;;;;;;;;;;;13.60;99.90;;;;;;2621275;46;20786;31
2022/04/15 00:16:37;;;;;;;;;;;13.60;99.90;;;;;;2621951;46;19956;31
2022/04/15 00:19:14;;;;;;;;;;;13.60;99.90;;;;;;2603221;54;19935;31
2022/04/15 00:21:49;;;;;;;;;;;13.50;99.90;;;;;;2603420;54;19941;31
2022/04/15 00:24:24;;;;;;;;;;;13.50;99.90;;;;;;2603066;54;20022;31
2022/04/15 00:26:59;;;;;;;;;;;13.50;99.90;;;;;;2603218;54;19997;31
2022/04/15 00:29:37;;;;;;;;;;;13.50;99.90;;;;;;2603420;54;20724;31
2022/04/15 00:32:13;;;;;;;;;;;13.50;99.90;;;;;;2621831;46;20669;31
2022/04/15 00:34:47;;;;;;;;;;;13.50;99.90;;;;;;2621883;46;20719;31
2022/04/15 00:37:21;;;;;;;;;;;13.50;99.90;;;;;;2603338;54;20769;31
2022/04/15 00:39:56;;;;;;;;;;;13.40;99.90;;;;;;2621556;46;19994;31
2022/04/15 00:42:33;;;;;;;;;;;13.40;99.90;;;;;;2603518;54;19942;31
2022/04/15 00:45:13;;;;;;;;;;;13.30;99.90;;;;;;2603141;54;19938;31
2022/04/15 00:47:51;;;;;;;;;;;13.30;99.90;;;;;;2603465;54;19935;31
2022/04/15 00:50:26;;;;;;;;;;;13.30;99.90;;;;;;2621938;46;19949;31
2022/04/15 00:53:01;;;;;;;;;;;13.20;99.90;;;;;;2603154;54;19939;31
2022/04/15 00:55:36;;;;;;;;;;;13.20;99.90;;;;;;2621539;46;20824;31
2022/04/15 00:58:11;;;;;;;;;;;13.20;99.90;;;;;;2621226;46;19980;31
2022/04/15 01:00:52;;;;;;;;;;;13.20;99.90;;;;;;2603372;54;20752;31
2022/04/15 01:03:27;;;;;;;;;;;13.20;99.90;;;;;;2605821;46;19935;31
2022/04/15 01:06:03;;;;;;;;;;;13.20;99.90;;;;;;2603136;54;19994;31
2022/04/15 01:08:40;;;;;;;;;;;13.10;99.90;;;;;;2603258;54;20025;31
2022/04/15 01:11:15;;;;;;;;;;;13.00;99.90;;;;;;2602914;54;19941;31
2022/04/15 01:13:50;;;;;;;;;;;13.00;99.90;;;;;;2603118;54;19942;31
2022/04/15 01:16:29;;;;;;;;;;;13.00;99.90;;;;;;2620964;46;20014;31
2022/04/15 01:19:07;;;;;;;;;;;13.00;99.90;;;;;;2603189;54;19935;31
2022/04/15 01:21:42;;;;;;;;;;;12.90;99.90;;;;;;2621674;46;20752;31
2022/04/15 01:24:19;;;;;;;;;;;12.90;99.90;;;;;;2602997;54;20001;31
2022/04/15 01:26:54;;;;;;;;;;;12.90;99.90;;;;;;2621496;46;19942;31
2022/04/15 01:29:29;;;;;;;;;;;12.90;99.90;;;;;;2602883;54;19981;31
2022/04/15 01:32:04;;;;;;;;;;;12.90;99.90;;;;;;2602683;54;20772;31
2022/04/15 01:34:39;;;;;;;;;;;12.90;99.90;;;;;;2602821;54;20772;31
2022/04/15 01:37:13;;;;;;;;;;;12.90;99.90;;;;;;2602875;54;19941;31
2022/04/15 01:39:51;;;;;;;;;;;12.90;99.90;;;;;;2602280;54;19965;31
2022/04/15 01:42:25;;;;;;;;;;;12.90;99.90;;;;;;2602151;54;21645;31
2022/04/15 01:45:00;;;;;;;;;;;12.80;99.90;;;;;;2602666;54;19935;31
2022/04/15 01:47:36;;;;;;;;;;;12.80;99.90;;;;;;2621154;46;19935;31
2022/04/15 01:50:12;;;;;;;;;;;12.80;99.90;;;;;;2602997;54;19981;31
2022/04/15 01:52:49;;;;;;;;;;;12.70;99.90;;;;;;2621209;46;19957;31
2022/04/15 01:55:34;;;;;;;;;;;12.80;99.90;;;;;;2602783;54;19950;31
2022/04/15 01:58:08;;;;;;;;;;;12.80;99.90;;;;;;2602952;54;19934;31
2022/04/15 02:00:44;;;;;;;;;;;12.70;99.90;;;;;;2602204;54;21656;31
2022/04/15 02:03:20;;;;;;;;;;;12.70;99.90;;;;;;2602861;54;19955;31
2022/04/15 02:05:57;;;;;;;;;;;12.70;99.90;;;;;;2621066;46;19952;31
2022/04/15 02:08:32;;;;;;;;;;;12.70;99.90;;;;;;2621329;46;20649;31
2022/04/15 02:11:12;;;;;;;;;;;12.60;99.90;;;;;;2621235;46;19935;31
2022/04/15 02:13:47;;;;;;;;;;;12.60;99.90;;;;;;2602578;54;19950;31
2022/04/15 02:16:24;;;;;;;;;;;12.60;99.90;;;;;;2602693;54;20774;31
2022/04/15 02:19:04;;;;;;;;;;;12.50;99.90;;;;;;2602711;54;19960;31
2022/04/15 02:21:47;;;;;;;;;;;12.50;99.90;;;;;;2602826;54;20754;31
2022/04/15 02:24:23;;;;;;;;;;;12.50;99.90;;;;;;2602751;54;22104;31
2022/04/15 02:27:01;;;;;;;;;;;12.50;99.90;;;;;;2621236;47;20733;31
2022/04/15 02:29:35;;;;;;;;;;;12.50;99.90;;;;;;2601835;54;19994;31
2022/04/15 02:32:11;;;;;;;;;;;12.50;99.90;;;;;;2620559;47;19939;31
2022/04/15 02:34:46;;;;;;;;;;;12.60;99.90;;;;;;2621368;47;20655;31
2022/04/15 02:37:24;;;;;;;;;;;12.50;99.90;;;;;;2602787;54;19939;31
2022/04/15 02:40:15;;;;;;;;;;;12.50;99.90;;;;;;2602671;54;20747;31
2022/04/15 02:42:53;;;;;;;;;;;12.50;99.90;;;;;;2621158;47;19941;31
2022/04/15 02:45:31;;;;;;;;;;;12.60;99.90;;;;;;2602804;54;19934;31
2022/04/15 02:48:08;;;;;;;;;;;12.50;99.90;;;;;;2602655;54;19938;31
2022/04/15 02:50:42;;;;;;;;;;;12.50;99.90;;;;;;2602673;54;19935;31
2022/04/15 02:53:19;;;;;;;;;;;12.50;99.90;;;;;;2602707;54;19934;31
2022/04/15 02:55:56;;;;;;;;;;;12.50;99.90;;;;;;2621109;47;19994;31
2022/04/15 02:58:34;;;;;;;;;;;12.50;99.90;;;;;;2603510;54;20751;31
2022/04/15 03:01:09;;;;;;;;;;;12.50;99.90;;;;;;2622019;46;20760;31
2022/04/15 03:03:47;;;;;;;;;;;12.50;99.90;;;;;;2622149;46;20088;31
2022/04/15 03:06:21;;;;;;;;;;;12.50;99.90;;;;;;2603565;54;19941;31
2022/04/15 03:08:57;;;;;;;;;;;12.40;99.90;;;;;;2603782;54;19939;31
2022/04/15 03:11:32;;;;;;;;;;;12.40;99.90;;;;;;2603369;54;19935;31
2022/04/15 03:14:10;;;;;;;;;;;12.40;99.90;;;;;;2603354;54;20037;31
2022/04/15 03:16:45;;;;;;;;;;;12.30;99.90;;;;;;2603329;54;20757;31
2022/04/15 03:19:20;;;;;;;;;;;12.30;99.90;;;;;;2603303;54;19941;31
2022/04/15 03:21:55;;;;;;;;;;;12.30;99.90;;;;;;2603395;54;19938;31
2022/04/15 03:24:29;;;;;;;;;;;12.30;99.90;;;;;;2603389;54;19935;31
2022/04/15 03:27:06;;;;;;;;;;;12.30;99.90;;;;;;2603247;54;19935;31
2022/04/15 03:29:44;;;;;;;;;;;12.30;99.90;;;;;;2603418;54;19942;31
2022/04/15 03:32:19;;;;;;;;;;;12.30;99.90;;;;;;2621733;46;19943;31
2022/04/15 03:34:54;;;;;;;;;;;12.30;99.90;;;;;;2603151;54;19942;31
2022/04/15 03:37:29;;;;;;;;;;;12.20;99.90;;;;;;2603306;54;20734;31
2022/04/15 03:40:05;;;;;;;;;;;12.20;99.90;;;;;;2621691;46;20010;31
2022/04/15 03:42:45;;;;;;;;;;;12.20;99.90;;;;;;2621441;46;19953;31
2022/04/15 03:45:22;;;;;;;;;;;12.20;99.90;;;;;;2603341;54;20672;31
2022/04/15 03:47:59;;;;;;;;;;;12.20;99.90;;;;;;2603347;54;19935;31
2022/04/15 03:50:33;;;;;;;;;;;12.10;99.90;;;;;;2603168;54;19934;31
2022/04/15 03:53:07;;;;;;;;;;;12.10;99.90;;;;;;2621917;46;20775;31
2022/04/15 03:55:42;;;;;;;;;;;12.10;99.90;;;;;;2602593;54;20696;31
2022/04/15 03:58:16;;;;;;;;;;;12.10;99.90;;;;;;2602330;54;19990;31
2022/04/15 04:00:55;;;;;;;;;;;12.00;99.90;;;;;;2614770;46;19986;31
2022/04/15 04:03:29;;;;;;;;;;;12.00;99.90;;;;;;2602317;54;20779;31
2022/04/15 04:06:04;;;;;;;;;;;12.00;99.90;;;;;;2602558;54;19949;31
2022/04/15 04:08:49;;;;;;;;;;;12.00;99.90;;;;;;2602980;54;19983;31
2022/04/15 04:11:26;;;;;;;;;;;12.00;99.90;;;;;;2603113;54;19958;31
2022/04/15 04:14:01;;;;;;;;;;;12.00;99.90;;;;;;2602585;54;20794;31
2022/04/15 04:16:38;;;;;;;;;;;11.90;99.90;;;;;;2602955;54;19985;31
2022/04/15 04:19:15;;;;;;;;;;;11.90;99.90;;;;;;2621830;46;19963;31
2022/04/15 04:21:49;;;;;;;;;;;11.90;99.90;;;;;;2621857;46;20730;31
2022/04/15 04:24:26;;;;;;;;;;;11.90;99.90;;;;;;2603004;54;20690;31
2022/04/15 04:27:01;;;;;;;;;;;11.90;99.90;;;;;;2602921;54;19935;31
2022/04/15 04:29:38;;;;;;;;;;;11.80;99.90;;;;;;2603057;54;19946;31
2022/04/15 04:32:15;;;;;;;;;;;11.80;99.90;;;;;;2603284;54;20701;31
2022/04/15 04:34:53;;;;;;;;;;;11.80;99.90;;;;;;2621713;46;19942;31
2022/04/15 04:37:30;;;;;;;;;;;11.70;99.90;;;;;;2603134;54;20757;31
2022/04/15 04:40:07;;;;;;;;;;;11.70;99.90;;;;;;2602705;54;19935;31
2022/04/15 04:42:42;;;;;;;;;;;11.70;99.90;;;;;;2621405;46;19941;31
2022/04/15 04:45:16;;;;;;;;;;;11.60;99.90;;;;;;2603027;54;20047;31
2022/04/15 04:47:53;;;;;;;;;;;11.60;99.90;;;;;;2602567;54;19943;31
2022/04/15 04:50:31;;;;;;;;;;;11.60;99.90;;;;;;2621555;46;20786;31
2022/04/15 04:53:06;;;;;;;;;;;11.60;99.90;;;;;;2621501;46;21424;31
2022/04/15 04:55:43;;;;;;;;;;;11.60;99.90;;;;;;2602887;54;20389;31
2022/04/15 04:58:19;;;;;;;;;;;11.60;99.90;;;;;;2602650;54;20806;31
2022/04/15 05:00:55;;;;;;;;;;;11.60;99.90;;;;;;2602030;54;20009;31
2022/04/15 05:03:31;;;;;;;;;;;11.70;99.90;;;;;;2602889;54;20079;31
2022/04/15 05:06:08;;;;;;;;;;;11.70;99.90;;;;;;2621331;46;19946;31
2022/04/15 05:08:46;;;;;;;;;;;11.70;99.90;;;;;;2654094;39;20810;31
2022/04/15 05:11:24;;;;;;;;;;;11.70;99.90;;;;;;2621147;46;19941;31
2022/04/15 05:13:59;;;;;;;;;;;11.70;99.90;;;;;;2602723;54;19934;31
2022/04/15 05:16:40;;;;;;;;;;;11.70;99.90;;;;;;2603063;54;19941;31
2022/04/15 05:19:15;;;;;;;;;;;11.70;99.90;;;;;;2621132;46;19934;31
2022/04/15 05:21:52;;;;;;;;;;;11.70;99.90;;;;;;2602756;54;19950;31
2022/04/15 05:24:27;;;;;;;;;;;11.70;99.90;;;;;;2602706;54;20666;31
2022/04/15 05:27:06;;;;;;;;;;;11.70;99.90;;;;;;2602060;54;19997;31
2022/04/15 05:29:41;;;;;;;;;;;11.70;99.90;;;;;;2621178;46;20967;31
2022/04/15 05:32:18;;;;;;;;;;;11.80;99.90;;;;;;2621176;46;21096;31
2022/04/15 05:34:54;;;;;;;;;;;11.80;99.90;;;;;;2621617;46;19941;31
2022/04/15 05:37:30;;;;;;;;;;;11.80;99.90;;;;;;2602797;54;19935;31
2022/04/15 05:40:01;;;;;;;;;;;11.80;99.90;;;;;;2602905;54;20907;31
2022/04/15 05:42:38;;;;;;;;;;;11.80;99.90;;;;;;2602884;54;19946;31
2022/04/15 05:45:24;;;;;;;;;;;11.90;99.90;;;;;;2602688;54;20810;31
2022/04/15 05:48:05;;;;;;;;;;;11.90;99.90;;;;;;2602927;54;19934;31
2022/04/15 05:50:39;;;;;;;;;;;11.90;99.90;;;;;;2621393;46;19990;31
2022/04/15 05:53:14;;;;;;;;;;;12.00;99.90;;;;;;2621223;46;19941;31
2022/04/15 05:55:51;;;;;;;;;;;12.00;99.90;;;;;;2621366;46;19935;31
2022/04/15 05:58:30;;;;;;;;;;;12.10;99.90;;;;;;2602809;54;20748;31
2022/04/15 06:01:09;;;;;;;;;;;12.20;99.90;;;;;;2602803;54;20124;31
2022/04/15 06:03:46;;;;;;;;;;;12.50;99.90;;;;;;2602818;54;19935;31
2022/04/15 06:06:24;;;;;;;;;;;12.70;99.90;;;;;;2621277;46;21080;31
2022/04/15 06:08:59;;;;;;;;;;;12.70;99.90;;;;;;2621502;46;19994;31
2022/04/15 06:11:37;;;;;;;;;;;12.70;99.90;;;;;;2602949;54;19938;31
2022/04/15 06:14:12;;;;;;;;;;;12.70;99.90;;;;;;2602779;54;20014;31
2022/04/15 06:16:51;;;;;;;;;;;12.70;99.90;;;;;;2621520;47;20021;31
2022/04/15 06:19:26;;;;;;;;;;;12.60;99.90;;;;;;2602619;54;19941;31
2022/04/15 06:22:09;;;;;;;;;;;12.50;99.90;;;;;;2602611;54;21084;31
2022/04/15 06:24:44;;;;;;;;;;;12.50;99.90;;;;;;2618857;47;20697;31
2022/04/15 06:27:20;;;;;;;;;;;12.50;99.90;;;;;;2601840;54;19934;31
2022/04/15 06:29:59;;;;;;;;;;;12.40;99.90;;;;;;2602582;54;21148;31
2022/04/15 06:32:37;;;;;;;;;;;12.40;99.90;;;;;;2603765;54;20746;31
2022/04/15 06:35:12;;;;;;;;;;;12.50;99.90;;;;;;2603473;54;19962;31
2022/04/15 06:37:47;;;;;;;;;;;12.50;99.90;;;;;;2621859;46;20755;31
2022/04/15 06:40:22;;;;;;;;;;;12.50;99.90;;;;;;2603477;54;19947;31
2022/04/15 06:42:57;;;;;;;;;;;12.50;99.90;;;;;;2603312;54;19943;31
2022/04/15 06:45:33;;;;;;;;;;;12.50;99.90;;;;;;2603456;54;19941;31
2022/04/15 06:48:11;;;;;;;;;;;12.60;99.90;;;;;;2621961;46;19980;31
2022/04/15 06:50:46;;;;;;;;;;;12.60;99.90;;;;;;2622162;46;19988;31
2022/04/15 06:53:23;;;;;;;;;;;12.70;99.90;;;;;;2620381;46;19942;31
2022/04/15 06:55:58;;;;;;;;;;;12.70;99.90;;;;;;2603318;54;19946;31
2022/04/15 06:58:34;;;;;;;;;;;12.80;99.90;;;;;;2702297;39;21351;31
2022/04/15 07:01:09;;;;;;;;;;;13.00;99.90;;;;;;2622317;46;20729;31
2022/04/15 07:03:47;;;;;;;;;;;13.20;99.90;;;;;;2603428;54;20733;31
2022/04/15 07:06:24;;;;;;;;;;;13.30;99.90;;;;;;2621748;46;19942;31
2022/04/15 07:08:57;;;;;;;;;;;13.30;99.90;;;;;;2702327;39;22089;31
2022/04/15 07:11:35;;;;;;;;;;;13.30;99.90;;;;;;2621829;46;20753;31
2022/04/15 07:14:10;;;;;;;;;;;13.20;99.90;;;;;;2602788;54;19935;31
2022/04/15 07:16:49;;;;;;;;;;;13.30;99.90;;;;;;2622269;46;19935;31
2022/04/15 07:19:28;;;;;;;;;;;13.40;99.90;;;;;;2603377;54;19935;31
2022/04/15 07:22:05;;;;;;;;;;;13.40;99.90;;;;;;2622173;46;20835;31
2022/04/15 07:24:41;;;;;;;;;;;13.60;99.90;;;;;;2621770;46;20694;31
2022/04/15 07:27:18;;;;;;;;;;;13.70;99.90;;;;;;2603629;54;19935;31
2022/04/15 07:29:58;;;;;;;;;;;13.70;99.90;;;;;;2602857;54;19942;31
2022/04/15 07:35:35;;;;;;;;;;;13.60;99.90;;;;;;2618323;39;20283;31
2022/04/15 07:38:20;;;;;;;;;;;13.60;99.90;;;;;;2603206;54;19938;31
2022/04/15 07:40:56;;;;;;;;;;;13.60;99.90;;;;;;2603384;54;19934;31
2022/04/15 07:43:55;;;;;;;;;;;13.60;99.90;;;;;;2603270;54;19942;31
2022/04/15 07:46:34;;;;;;;;;;;13.60;99.90;;;;;;2616501;46;19941;31
2022/04/15 07:49:09;;;;;;;;;;;13.50;99.90;;;;;;2602744;54;20688;31
2022/04/15 07:51:59;;;;;;;;;;;13.50;99.90;;;;;;2622059;46;19935;31
2022/04/15 07:54:38;;;;;;;;;;;13.60;99.90;;;;;;2621334;46;19943;31
2022/04/15 07:57:13;;;;;;;;;;;13.80;99.90;;;;;;2603271;54;19934;31
2022/04/15 07:59:49;;;;;;;;;;;14.00;99.90;;;;;;2621915;46;20793;31
2022/04/15 08:02:31;;;;;;;;;;;14.10;99.90;;;;;;2622031;46;19942;31
2022/04/15 08:05:06;;;;;;;;;;;14.50;99.90;;;;;;2603471;54;19935;31
2022/04/15 08:07:42;;;;;;;;;;;15.20;99.90;;;;;;2602581;54;20765;31
2022/04/15 08:10:18;;;;;;;;;;;15.80;99.90;;;;;;2602920;54;19941;31
2022/04/15 08:12:55;;;;;;;;;;;16.10;99.90;;;;;;2621818;46;19941;31
2022/04/15 08:15:29;;;;;;;;;;;16.40;99.90;;;;;;2603493;54;20635;31
2022/04/15 08:18:03;;;;;;;;;;;16.50;99.90;;;;;;2603302;54;19942;31
2022/04/15 08:20:39;;;;;;;;;;;16.60;99.90;;;;;;2622084;46;21189;31
2022/04/15 08:23:14;;;;;;;;;;;16.60;99.90;;;;;;2603193;54;19982;31
2022/04/15 08:25:49;;;;;;;;;;;16.50;99.90;;;;;;2602541;54;20768;31
2022/04/15 08:28:32;;;;;;;;;;;16.40;99.90;;;;;;2603454;54;20651;31
2022/04/15 08:31:08;;;;;;;;;;;16.20;99.90;;;;;;2621883;46;19941;31
2022/04/15 08:33:43;;;;;;;;;;;16.10;99.90;;;;;;2602485;54;19942;31
2022/04/15 08:36:30;;;;;;;;;;;15.90;99.90;;;;;;2603172;54;19935;31
2022/04/15 08:39:09;;;;;;;;;;;15.70;99.90;;;;;;2621534;46;20013;31
2022/04/15 08:41:45;;;;;;;;;;;15.50;99.90;;;;;;2603363;54;19941;31
2022/04/15 08:44:23;;;;;;;;;;;15.30;99.90;;;;;;2621769;46;19935;31
2022/04/15 08:46:58;;;;;;;;;;;15.20;99.90;;;;;;2621972;46;20041;31
2022/04/15 08:49:35;;;;;;;;;;;15.00;99.90;;;;;;2602980;54;19946;31
2022/04/15 08:52:11;;;;;;;;;;;14.90;99.90;;;;;;2620890;46;19962;31
2022/04/15 08:54:46;;;;;;;;;;;14.70;99.90;;;;;;2603217;54;20659;31
2022/04/15 08:57:21;;;;;;;;;;;14.50;99.90;;;;;;2603154;54;19935;31
2022/04/15 08:59:59;;;;;;;;;;;14.30;99.90;;;;;;2621726;46;20021;31
2022/04/15 09:02:35;;;;;;;;;;;14.20;99.90;;;;;;2602999;54;19939;31
2022/04/15 09:05:16;;;;;;;;;;;14.00;99.90;;;;;;2621836;46;20741;31
2022/04/15 09:07:51;;;;;;;;;;;13.70;99.90;;;;;;2602936;54;20813;31
2022/04/15 09:10:26;;;;;;;;;;;13.60;99.90;;;;;;2621725;46;20749;31
2022/04/15 09:13:01;;;;;;;;;;;13.40;99.90;;;;;;2602796;54;19942;31
2022/04/15 09:15:43;;;;;;;;;;;13.20;99.90;;;;;;2621430;46;19950;31
2022/04/15 09:18:32;;;;;;;;;;;13.10;99.90;;;;;;2621508;46;19942;31
2022/04/15 09:21:09;;;;;;;;;;;13.00;99.90;;;;;;2603113;54;19946;31
2022/04/15 09:23:45;;;;;;;;;;;13.00;99.90;;;;;;2603088;54;19960;31
2022/04/15 09:26:22;;;;;;;;;;;13.00;99.90;;;;;;2603122;54;19951;31
2022/04/15 09:28:58;;;;;;;;;;;13.00;99.90;;;;;;2621164;46;19935;31
2022/04/15 09:31:33;;;;;;;;;;;13.00;99.90;;;;;;2620425;46;19935;31
2022/04/15 09:34:11;;;;;;;;;;;13.00;99.90;;;;;;2603023;54;19934;31
2022/04/15 09:36:48;;;;;;;;;;;13.00;99.90;;;;;;2602857;54;19942;31
2022/04/15 09:39:23;;;;;;;;;;;13.00;99.90;;;;;;2621601;46;19943;31
2022/04/15 09:41:58;;;;;;;;;;;13.00;99.90;;;;;;2621439;46;19935;31
2022/04/15 09:44:34;;;;;;;;;;;13.00;99.90;;;;;;2602863;54;19934;31
2022/04/15 09:47:11;;;;;;;;;;;12.90;99.90;;;;;;2602949;54;19934;31
2022/04/15 09:49:49;;;;;;;;;;;12.90;99.90;;;;;;2602806;54;19935;31
2022/04/15 09:52:26;;;;;;;;;;;12.80;99.90;;;;;;2621305;46;19935;31
2022/04/15 09:55:02;;;;;;;;;;;12.80;99.90;;;;;;2621239;46;20762;31
2022/04/15 09:57:37;;;;;;;;;;;12.80;99.90;;;;;;2602837;54;20788;31
2022/04/15 10:00:15;;;;;;;;;;;12.80;99.90;;;;;;2602527;54;20050;31
2022/04/15 10:02:56;;;;;;;;;;;12.70;99.90;;;;;;2621371;46;19938;31
2022/04/15 10:05:38;;;;;;;;;;;12.70;99.90;;;;;;2602779;54;19998;31
2022/04/15 10:08:13;;;;;;;;;;;12.80;99.90;;;;;;2621385;46;20787;31
2022/04/15 10:10:51;;;;;;;;;;;12.80;99.90;;;;;;2600763;54;20001;31
2022/04/15 10:13:30;;;;;;;;;;;12.90;99.90;;;;;;2601312;54;19954;31
2022/04/15 10:16:07;;;;;;;;;;;13.00;99.90;;;;;;2620463;47;19934;31
2022/04/15 10:18:45;;;;;;;;;;;13.00;99.90;;;;;;2602080;54;20772;31
2022/04/15 10:21:23;;;;;;;;;;;13.00;99.90;;;;;;2620694;47;20017;31
2022/04/15 10:24:00;;;;;;;;;;;13.00;99.90;;;;;;2620170;47;20851;31
2022/04/15 10:26:37;;;;;;;;;;;12.90;99.90;;;;;;2602878;54;19935;31
2022/04/15 10:29:16;;;;;;;;;;;12.90;99.90;;;;;;2602031;54;19949;31
2022/04/15 10:31:54;;;;;;;;;;;12.90;99.90;;;;;;2602837;54;20758;31
2022/04/15 10:34:29;;;;;;;;;;;12.90;99.90;;;;;;2602778;54;19947;31
2022/04/15 10:37:11;;;;;;;;;;;12.80;99.90;;;;;;2602722;54;19934;31
2022/04/15 10:39:51;;;;;;;;;;;12.80;99.90;;;;;;2602775;54;19935;31
2022/04/15 10:42:26;;;;;;;;;;;12.80;99.90;;;;;;2621052;47;19934;31
2022/04/15 10:45:02;;;;;;;;;;;12.90;99.90;;;;;;2602723;54;19934;31
2022/04/15 10:47:37;;;;;;;;;;;12.90;99.90;;;;;;2602679;54;19985;31
2022/04/15 10:50:15;;;;;;;;;;;12.90;99.90;;;;;;2602784;54;20769;31
2022/04/15 10:52:52;;;;;;;;;;;13.00;99.90;;;;;;2620793;47;21107;31
2022/04/15 10:55:27;;;;;;;;;;;13.10;99.90;;;;;;2602877;54;19977;31
2022/04/15 10:58:14;;;;;;;;;;;13.10;99.90;;;;;;2602623;54;20641;31
2022/04/15 11:01:16;;;;;;;;;;;13.20;99.90;;;;;;2602706;54;19935;31
2022/04/15 11:03:53;;;;;;;;;;;13.20;99.90;;;;;;2602716;54;20679;31
2022/04/15 11:06:30;;;;;;;;;;;13.30;99.90;;;;;;2621371;47;19941;31
2022/04/15 11:09:19;;;;;;;;;;;13.30;99.90;;;;;;2602450;54;19935;31
2022/04/15 11:11:54;;;;;;;;;;;13.40;99.90;;;;;;2602730;54;19961;31
2022/04/15 11:14:32;;;;;;;;;;;13.40;99.90;;;;;;2601800;54;20765;31
2022/04/15 11:17:07;;;;;;;;;;;13.30;99.90;;;;;;2602167;54;20666;31
2022/04/15 11:19:42;;;;;;;;;;;13.20;99.90;;;;;;2601877;54;20017;31
2022/04/15 11:22:24;;;;;;;;;;;13.10;99.90;;;;;;2602430;46;20682;31
2022/04/15 11:25:02;;;;;;;;;;;13.10;99.90;;;;;;2602623;54;20787;31
2022/04/15 11:27:41;;;;;;;;;;;13.20;99.90;;;;;;2620821;46;19943;31
2022/04/15 11:30:16;;;;;;;;;;;13.30;99.90;;;;;;2603192;54;20730;31
2022/04/15 11:32:51;;;;;;;;;;;13.30;99.90;;;;;;2621293;46;19990;31
2022/04/15 11:35:33;;;;;;;;;;;13.50;99.90;;;;;;2601154;54;19934;31
2022/04/15 11:38:09;;;;;;;;;;;13.50;99.90;;;;;;2619278;46;19942;31
2022/04/15 11:40:47;;;;;;;;;;;13.60;99.90;;;;;;2601360;54;20694;31
2022/04/15 11:43:27;;;;;;;;;;;13.70;99.90;;;;;;2619252;46;19948;31
2022/04/15 11:46:03;;;;;;;;;;;13.70;99.90;;;;;;2601407;54;20695;31
2022/04/15 11:48:39;;;;;;;;;;;13.70;99.90;;;;;;2619508;46;19941;31
2022/04/15 11:51:13;;;;;;;;;;;13.70;99.90;;;;;;2619699;46;19935;31
2022/04/15 11:53:54;;;;;;;;;;;13.60;99.90;;;;;;2603159;54;21275;31
2022/04/15 11:56:33;;;;;;;;;;;13.50;99.90;;;;;;2622250;46;20696;31
2022/04/15 11:59:09;;;;;;;;;;;13.40;99.90;;;;;;2602755;54;20802;31
2022/04/15 12:01:45;;;;;;;;;;;13.30;99.90;;;;;;2603373;54;19957;31
2022/04/15 12:04:21;;;;;;;;;;;13.30;99.90;;;;;;2621965;46;20757;31
2022/04/15 12:07:00;;;;;;;;;;;13.10;99.90;;;;;;2603116;54;20624;31
2022/04/15 12:09:37;;;;;;;;;;;13.00;99.90;;;;;;2603457;54;20765;31
2022/04/15 12:12:19;;;;;;;;;;;12.90;99.90;;;;;;2603204;54;20011;31
2022/04/15 12:14:57;;;;;;;;;;;12.80;99.90;;;;;;2603380;54;19935;31
2022/04/15 12:17:32;;;;;;;;;;;12.70;99.90;;;;;;2610825;46;20740;31
2022/04/15 12:20:09;;;;;;;;;;;12.70;99.90;;;;;;2791749;31;20546;31
2022/04/15 12:22:44;;;;;;;;;;;12.80;99.90;;;;;;2603098;54;19957;31
2022/04/15 12:25:18;;;;;;;;;;;12.80;99.90;;;;;;2603434;54;20021;31
2022/04/15 12:27:57;;;;;;;;;;;12.80;99.90;;;;;;2602764;54;19960;31
2022/04/15 12:30:35;;;;;;;;;;;12.80;99.90;;;;;;2603017;54;19935;31
2022/04/15 12:33:10;;;;;;;;;;;12.80;99.90;;;;;;2607849;46;19985;31
2022/04/15 12:36:00;;;;;;;;;;;12.80;99.90;;;;;;2602969;54;19942;31
2022/04/15 12:38:49;;;;;;;;;;;12.80;99.90;;;;;;2603109;54;19935;31
2022/04/15 12:41:23;;;;;;;;;;;12.80;99.90;;;;;;2603138;54;19998;31
2022/04/15 12:44:12;;;;;;;;;;;12.80;99.90;;;;;;2603242;54;19934;31
2022/04/15 12:46:50;;;;;;;;;;;12.70;99.90;;;;;;2603024;54;19942;31
2022/04/15 12:49:25;;;;;;;;;;;12.60;99.90;;;;;;2602244;54;19942;31
2022/04/15 12:52:11;;;;;;;;;;;12.50;99.90;;;;;;2602350;54;19935;31
2022/04/15 12:55:07;;;;;;;;;;;12.30;99.90;;;;;;2609126;46;20107;31
2022/04/15 12:57:44;;;;;;;;;;;12.20;99.90;;;;;;2619839;46;20049;31
2022/04/15 13:00:21;;;;;;;;;;;12.20;99.90;;;;;;2701871;39;22307;31
2022/04/15 13:02:59;;;;;;;;;;;12.20;99.90;;;;;;2621619;46;20666;31
2022/04/15 13:05:36;;;;;;;;;;;12.10;99.90;;;;;;2701215;39;21504;31
2022/04/15 13:08:15;;;;;;;;;;;12.10;99.90;;;;;;2603143;54;20714;31
2022/04/15 13:10:50;;;;;;;;;;;12.00;99.90;;;;;;2602358;54;21499;31
2022/04/15 13:13:41;;;;;;;;;;;12.00;99.90;;;;;;2602815;54;19935;31
2022/04/15 13:16:21;;;;;;;;;;;12.00;99.90;;;;;;2607739;46;20764;31
2022/04/15 13:18:58;;;;;;;;;;;12.00;99.90;;;;;;2602989;54;20672;31
2022/04/15 13:21:36;;;;;;;;;;;12.10;99.90;;;;;;2621316;46;20647;31
2022/04/15 13:24:14;;;;;;;;;;;12.10;99.90;;;;;;2603075;54;20803;31
2022/04/15 13:26:49;;;;;;;;;;;12.10;99.90;;;;;;2602864;54;20001;31
2022/04/15 13:29:27;;;;;;;;;;;12.10;99.90;;;;;;2611355;46;19941;31
2022/04/15 13:32:01;;;;;;;;;;;12.10;99.90;;;;;;2602018;54;19942;31
2022/04/15 13:34:38;;;;;;;;;;;12.00;99.90;;;;;;2602777;54;20761;31
2022/04/15 13:37:16;;;;;;;;;;;12.10;99.90;;;;;;2621185;46;20740;31
2022/04/15 13:39:51;;;;;;;;;;;12.10;99.90;;;;;;2602582;54;19941;31
2022/04/15 13:42:26;;;;;;;;;;;12.10;99.90;;;;;;2602783;54;20010;31
2022/04/15 13:45:01;;;;;;;;;;;12.00;99.90;;;;;;2621134;46;20013;31
2022/04/15 13:47:41;;;;;;;;;;;11.90;99.90;;;;;;2602784;54;19938;31
2022/04/15 13:50:18;;;;;;;;;;;11.80;99.90;;;;;;2602841;54;20718;31
2022/04/15 13:58:41;;;;;;;;;;;11.60;99.90;;;;;;2602754;54;19941;31
2022/04/15 14:01:27;;;;;;;;;;;11.60;99.90;;;;;;2602636;54;19935;31
2022/04/15 14:04:06;;;;;;;;;;;11.60;99.90;;;;;;2602900;54;20013;31
2022/04/15 14:06:41;;;;;;;;;;;11.60;99.90;;;;;;2602979;54;19951;31
2022/04/15 14:09:21;;;;;;;;;;;11.70;99.90;;;;;;2621554;46;20822;31
2022/04/15 14:11:57;;;;;;;;;;;11.70;99.90;;;;;;2602693;54;20627;31
2022/04/15 14:14:32;;;;;;;;;;;11.80;99.90;;;;;;2620988;46;21162;31
2022/04/15 14:17:08;;;;;;;;;;;11.90;99.90;;;;;;2601943;54;21255;31
2022/04/15 14:19:43;;;;;;;;;;;12.00;99.90;;;;;;2602777;54;20593;31
2022/04/15 14:22:23;;;;;;;;;;;12.20;99.90;;;;;;2602680;54;19941;31
2022/04/15 14:25:00;;;;;;;;;;;12.30;99.90;;;;;;2602816;54;19934;31
2022/04/15 14:27:38;;;;;;;;;;;12.40;99.90;;;;;;2602938;54;19934;31
2022/04/15 14:30:13;;;;;;;;;;;12.40;99.90;;;;;;2620367;47;19934;31
2022/04/15 14:32:54;;;;;;;;;;;12.40;99.90;;;;;;2601503;54;19948;31
2022/04/15 14:35:29;;;;;;;;;;;12.40;99.90;;;;;;2601350;54;20029;31
2022/04/15 14:38:05;;;;;;;;;;;12.50;99.90;;;;;;2600964;54;20779;31
2022/04/15 14:40:42;;;;;;;;;;;12.40;99.90;;;;;;2700539;39;21280;31
2022/04/15 14:43:23;;;;;;;;;;;12.40;99.90;;;;;;2620683;47;19941;31
2022/04/15 14:45:58;;;;;;;;;;;12.40;99.90;;;;;;2602572;54;20029;31
2022/04/15 14:48:33;;;;;;;;;;;12.40;99.90;;;;;;2602542;54;20827;31
2022/04/15 14:51:08;;;;;;;;;;;12.30;99.90;;;;;;2621594;47;19941;31
2022/04/15 14:53:43;;;;;;;;;;;12.20;99.90;;;;;;2622196;46;19969;31
2022/04/15 14:56:20;;;;;;;;;;;12.10;99.90;;;;;;2603695;54;19935;31
2022/04/15 14:58:55;;;;;;;;;;;12.00;99.90;;;;;;2603397;54;20747;31
2022/04/15 15:01:33;;;;;;;;;;;11.90;99.90;;;;;;2621589;46;19941;31
2022/04/15 15:04:10;;;;;;;;;;;12.00;99.90;;;;;;2603221;54;19942;31
2022/04/15 15:06:45;;;;;;;;;;;11.90;99.90;;;;;;2621927;46;19935;31
2022/04/15 15:09:20;;;;;;;;;;;11.80;99.90;;;;;;2621884;46;20776;31
2022/04/15 15:11:58;;;;;;;;;;;11.70;99.90;;;;;;2603188;54;19946;31
2022/04/15 15:14:33;;;;;;;;;;;11.60;99.90;;;;;;2603288;54;19997;31
2022/04/15 15:17:08;;;;;;;;;;;11.40;99.90;;;;;;2603129;54;19941;31
2022/04/15 15:19:42;;;;;;;;;;;11.30;99.90;;;;;;2603279;54;19941;31
2022/04/15 15:22:17;;;;;;;;;;;11.20;99.90;;;;;;2603118;54;20769;31
2022/04/15 15:30:36;;;;;;;;;;;11.00;99.90;;;;;;2621933;46;19989;31
2022/04/15 15:33:09;;;;;;;;;;;11.00;99.90;;;;;;2603007;54;20723;31
2022/04/15 15:35:48;;;;;;;;;;;10.90;99.90;;;;;;2621716;46;19961;31
2022/04/15 15:38:25;;;;;;;;;;;10.80;99.90;;;;;;2720168;39;20429;31
2022/04/15 15:41:01;;;;;;;;;;;10.80;99.90;;;;;;2603210;54;20743;31
2022/04/15 15:43:39;;;;;;;;;;;10.80;99.90;;;;;;2621706;46;20679;31